sensor_id;sensor_type;location;lat;lon;timestamp;pressure;altitude;pressure_sealevel;temperature;humidity
73455;BME280;61690;51.824;6.306;2023-06-22T00:01:50;101837.00;;;21.81;56.33
73455;BME280;61690;51.824;6.306;2023-06-22T00:04:17;101828.25;;;21.93;56.30
73455;BME280;61690;51.824;6.306;2023-06-22T00:06:44;101834.91;;;21.86;56.41
73455;BME280;61690;51.824;6.306;2023-06-22T00:09:09;101830.88;;;21.93;56.02
73455;BME280;61690;51.824;6.306;2023-06-22T00:11:36;101834.94;;;21.99;56.03
73455;BME280;61690;51.824;6.306;2023-06-22T00:14:02;101824.91;;;22.04;55.69
73455;BME280;61690;51.824;6.306;2023-06-22T00:16:27;101818.44;;;22.08;55.54
73455;BME280;61690;51.824;6.306;2023-06-22T00:18:53;101820.78;;;21.86;55.90
73455;BME280;61690;51.824;6.306;2023-06-22T00:21:18;101816.66;;;22.09;55.28
73455;BME280;61690;51.824;6.306;2023-06-22T00:23:46;101811.56;;;22.06;55.36
73455;BME280;61690;51.824;6.306;2023-06-22T00:26:13;101812.97;;;22.24;54.81
73455;BME280;61690;51.824;6.306;2023-06-22T00:28:40;101818.50;;;22.21;54.58
73455;BME280;61690;51.824;6.306;2023-06-22T00:31:05;101824.75;;;21.66;56.21
73455;BME280;61690;51.824;6.306;2023-06-22T00:33:30;101822.53;;;21.72;56.09
73455;BME280;61690;51.824;6.306;2023-06-22T00:35:58;101819.22;;;21.83;55.59
73455;BME280;61690;51.824;6.306;2023-06-22T00:38:24;101833.41;;;21.82;55.65
73455;BME280;61690;51.824;6.306;2023-06-22T00:40:49;101827.69;;;21.61;56.50
73455;BME280;61690;51.824;6.306;2023-06-22T00:43:14;101829.84;;;21.69;56.15
73455;BME280;61690;51.824;6.306;2023-06-22T00:45:39;101826.00;;;21.87;55.67
73455;BME280;61690;51.824;6.306;2023-06-22T00:48:06;101821.50;;;21.75;56.05
73455;BME280;61690;51.824;6.306;2023-06-22T00:50:33;101815.66;;;21.70;56.06
73455;BME280;61690;51.824;6.306;2023-06-22T00:53:01;101814.72;;;21.57;56.53
73455;BME280;61690;51.824;6.306;2023-06-22T00:55:33;101816.06;;;21.91;55.58
73455;BME280;61690;51.824;6.306;2023-06-22T00:58:08;101813.47;;;21.77;55.88
73455;BME280;61690;51.824;6.306;2023-06-22T01:00:36;101809.03;;;21.63;56.40
73455;BME280;61690;51.824;6.306;2023-06-22T01:03:02;101810.59;;;21.52;56.70
73455;BME280;61690;51.824;6.306;2023-06-22T01:05:28;101801.13;;;21.34;56.95
73455;BME280;61690;51.824;6.306;2023-06-22T01:11:01;101799.88;;;21.40;56.80
73455;BME280;61690;51.824;6.306;2023-06-22T01:16:10;101796.44;;;21.25;57.47
73455;BME280;61690;51.824;6.306;2023-06-22T01:18:40;101798.78;;;21.29;57.33
73455;BME280;61690;51.824;6.306;2023-06-22T01:21:06;101798.00;;;21.13;57.87
73455;BME280;61690;51.824;6.306;2023-06-22T01:26:43;101794.63;;;21.11;58.08
73455;BME280;61690;51.824;6.306;2023-06-22T01:29:14;101798.03;;;20.99;58.26
73455;BME280;61690;51.824;6.306;2023-06-22T01:31:42;101798.31;;;21.08;57.54
73455;BME280;61690;51.824;6.306;2023-06-22T01:34:10;101792.66;;;21.00;57.98
73455;BME280;61690;51.824;6.306;2023-06-22T01:36:38;101789.41;;;21.24;57.24
73455;BME280;61690;51.824;6.306;2023-06-22T01:39:05;101793.50;;;21.01;57.86
73455;BME280;61690;51.824;6.306;2023-06-22T01:41:34;101788.31;;;21.13;57.68
73455;BME280;61690;51.824;6.306;2023-06-22T01:44:00;101788.84;;;21.33;56.84
73455;BME280;61690;51.824;6.306;2023-06-22T01:46:26;101799.69;;;21.28;57.02
73455;BME280;61690;51.824;6.306;2023-06-22T01:48:52;101794.34;;;21.01;57.87
73455;BME280;61690;51.824;6.306;2023-06-22T01:51:18;101795.56;;;20.95;57.79
73455;BME280;61690;51.824;6.306;2023-06-22T01:53:43;101791.69;;;20.87;58.42
73455;BME280;61690;51.824;6.306;2023-06-22T01:56:10;101790.94;;;20.85;58.22
73455;BME280;61690;51.824;6.306;2023-06-22T01:58:37;101790.44;;;20.78;58.37
73455;BME280;61690;51.824;6.306;2023-06-22T02:01:10;101781.31;;;20.69;58.92
73455;BME280;61690;51.824;6.306;2023-06-22T02:03:51;101777.59;;;20.72;58.71
73455;BME280;61690;51.824;6.306;2023-06-22T02:06:25;101775.00;;;20.56;59.07
73455;BME280;61690;51.824;6.306;2023-06-22T02:09:01;101773.22;;;20.56;58.94
73455;BME280;61690;51.824;6.306;2023-06-22T02:11:28;101774.59;;;20.64;59.04
73455;BME280;61690;51.824;6.306;2023-06-22T02:13:57;101771.69;;;20.52;59.26
73455;BME280;61690;51.824;6.306;2023-06-22T02:16:23;101775.13;;;20.69;58.76
73455;BME280;61690;51.824;6.306;2023-06-22T02:18:49;101774.25;;;20.54;59.30
73455;BME280;61690;51.824;6.306;2023-06-22T02:21:20;101781.31;;;20.53;59.49
73455;BME280;61690;51.824;6.306;2023-06-22T02:23:47;101778.88;;;20.50;59.28
73455;BME280;61690;51.824;6.306;2023-06-22T02:26:12;101784.63;;;20.57;59.01
73455;BME280;61690;51.824;6.306;2023-06-22T02:28:38;101778.25;;;20.61;59.27
73455;BME280;61690;51.824;6.306;2023-06-22T02:31:04;101778.88;;;20.50;59.31
73455;BME280;61690;51.824;6.306;2023-06-22T02:33:31;101782.06;;;20.55;59.19
73455;BME280;61690;51.824;6.306;2023-06-22T02:35:58;101770.06;;;20.35;59.72
73455;BME280;61690;51.824;6.306;2023-06-22T02:38:25;101773.81;;;20.31;60.09
73455;BME280;61690;51.824;6.306;2023-06-22T02:40:50;101763.72;;;20.24;60.22
73455;BME280;61690;51.824;6.306;2023-06-22T02:43:16;101760.78;;;20.28;60.22
73455;BME280;61690;51.824;6.306;2023-06-22T02:45:42;101760.31;;;20.36;59.83
73455;BME280;61690;51.824;6.306;2023-06-22T02:48:07;101762.03;;;20.37;59.92
73455;BME280;61690;51.824;6.306;2023-06-22T02:50:32;101756.69;;;20.53;59.44
73455;BME280;61690;51.824;6.306;2023-06-22T02:52:58;101761.84;;;20.70;58.81
73455;BME280;61690;51.824;6.306;2023-06-22T02:55:24;101759.63;;;20.48;59.40
73455;BME280;61690;51.824;6.306;2023-06-22T02:57:49;101755.72;;;20.40;59.76
73455;BME280;61690;51.824;6.306;2023-06-22T03:00:18;101752.50;;;20.34;60.15
73455;BME280;61690;51.824;6.306;2023-06-22T03:02:49;101749.81;;;20.20;60.80
73455;BME280;61690;51.824;6.306;2023-06-22T03:05:15;101751.91;;;20.74;58.78
73455;BME280;61690;51.824;6.306;2023-06-22T03:07:44;101753.97;;;20.54;59.58
73455;BME280;61690;51.824;6.306;2023-06-22T03:10:12;101759.31;;;20.39;60.39
73455;BME280;61690;51.824;6.306;2023-06-22T03:12:38;101752.94;;;20.27;60.52
73455;BME280;61690;51.824;6.306;2023-06-22T03:15:12;101754.06;;;20.23;60.79
73455;BME280;61690;51.824;6.306;2023-06-22T03:17:38;101752.06;;;20.12;61.33
73455;BME280;61690;51.824;6.306;2023-06-22T03:20:05;101756.47;;;20.27;60.87
73455;BME280;61690;51.824;6.306;2023-06-22T03:22:36;101748.63;;;20.26;60.67
73455;BME280;61690;51.824;6.306;2023-06-22T03:25:02;101745.88;;;20.27;60.73
73455;BME280;61690;51.824;6.306;2023-06-22T03:27:27;101748.00;;;20.36;60.25
73455;BME280;61690;51.824;6.306;2023-06-22T03:29:54;101744.13;;;20.56;60.06
73455;BME280;61690;51.824;6.306;2023-06-22T03:32:21;101743.50;;;20.23;61.37
73455;BME280;61690;51.824;6.306;2023-06-22T03:34:47;101737.53;;;20.19;61.20
73455;BME280;61690;51.824;6.306;2023-06-22T03:37:33;101752.16;;;20.41;60.81
73455;BME280;61690;51.824;6.306;2023-06-22T03:39:58;101744.00;;;20.29;60.74
73455;BME280;61690;51.824;6.306;2023-06-22T03:42:23;101746.66;;;20.44;60.46
73455;BME280;61690;51.824;6.306;2023-06-22T03:44:48;101737.66;;;20.17;61.89
73455;BME280;61690;51.824;6.306;2023-06-22T03:47:16;101730.59;;;20.32;60.89
73455;BME280;61690;51.824;6.306;2023-06-22T03:49:42;101731.25;;;20.22;61.33
73455;BME280;61690;51.824;6.306;2023-06-22T03:52:07;101729.72;;;20.17;61.66
73455;BME280;61690;51.824;6.306;2023-06-22T03:54:34;101734.72;;;19.92;62.68
73455;BME280;61690;51.824;6.306;2023-06-22T03:56:59;101731.28;;;20.06;62.26
73455;BME280;61690;51.824;6.306;2023-06-22T03:59:25;101738.56;;;19.86;63.02
73455;BME280;61690;51.824;6.306;2023-06-22T04:01:50;101738.25;;;19.76;63.25
73455;BME280;61690;51.824;6.306;2023-06-22T04:04:17;101734.25;;;19.85;63.34
73455;BME280;61690;51.824;6.306;2023-06-22T04:06:43;101728.81;;;19.72;63.72
73455;BME280;61690;51.824;6.306;2023-06-22T04:09:09;101732.44;;;19.70;63.56
73455;BME280;61690;51.824;6.306;2023-06-22T04:11:34;101722.81;;;19.69;63.75
73455;BME280;61690;51.824;6.306;2023-06-22T04:14:00;101721.41;;;19.79;63.53
73455;BME280;61690;51.824;6.306;2023-06-22T04:16:37;101735.00;;;19.87;63.25
73455;BME280;61690;51.824;6.306;2023-06-22T04:19:02;101727.16;;;19.86;63.40
73455;BME280;61690;51.824;6.306;2023-06-22T04:21:28;101730.81;;;19.99;62.91
73455;BME280;61690;51.824;6.306;2023-06-22T04:23:53;101723.25;;;20.37;61.57
73455;BME280;61690;51.824;6.306;2023-06-22T04:26:18;101726.72;;;19.93;63.09
73455;BME280;61690;51.824;6.306;2023-06-22T04:31:21;101725.16;;;20.05;62.81
73455;BME280;61690;51.824;6.306;2023-06-22T04:33:47;101728.31;;;20.12;62.73
73455;BME280;61690;51.824;6.306;2023-06-22T04:36:12;101730.56;;;20.18;62.35
73455;BME280;61690;51.824;6.306;2023-06-22T04:38:39;101727.72;;;20.21;62.57
73455;BME280;61690;51.824;6.306;2023-06-22T04:41:04;101730.59;;;20.32;62.14
73455;BME280;61690;51.824;6.306;2023-06-22T04:43:41;101729.97;;;20.43;61.50
73455;BME280;61690;51.824;6.306;2023-06-22T04:46:07;101729.22;;;20.41;61.83
73455;BME280;61690;51.824;6.306;2023-06-22T04:48:33;101719.63;;;20.24;62.68
73455;BME280;61690;51.824;6.306;2023-06-22T04:50:59;101729.91;;;20.14;63.10
73455;BME280;61690;51.824;6.306;2023-06-22T04:53:28;101722.94;;;20.28;62.87
73455;BME280;61690;51.824;6.306;2023-06-22T04:55:55;101721.56;;;20.36;62.78
73455;BME280;61690;51.824;6.306;2023-06-22T04:58:20;101724.84;;;20.40;62.67
73455;BME280;61690;51.824;6.306;2023-06-22T05:00:46;101726.13;;;20.18;63.73
73455;BME280;61690;51.824;6.306;2023-06-22T05:03:13;101724.94;;;20.24;63.46
73455;BME280;61690;51.824;6.306;2023-06-22T05:05:38;101719.31;;;20.59;62.22
73455;BME280;61690;51.824;6.306;2023-06-22T05:08:04;101718.84;;;20.52;62.52
73455;BME280;61690;51.824;6.306;2023-06-22T05:10:35;101725.13;;;20.66;62.49
73455;BME280;61690;51.824;6.306;2023-06-22T05:13:00;101716.66;;;20.45;63.22
73455;BME280;61690;51.824;6.306;2023-06-22T05:15:26;101713.88;;;20.62;62.84
73455;BME280;61690;51.824;6.306;2023-06-22T05:17:55;101722.50;;;20.50;63.45
73455;BME280;61690;51.824;6.306;2023-06-22T05:20:20;101716.03;;;20.70;62.73
73455;BME280;61690;51.824;6.306;2023-06-22T05:22:47;101721.94;;;20.59;63.03
73455;BME280;61690;51.824;6.306;2023-06-22T05:25:13;101719.53;;;20.70;62.88
73455;BME280;61690;51.824;6.306;2023-06-22T05:27:39;101719.78;;;20.51;63.50
73455;BME280;61690;51.824;6.306;2023-06-22T05:30:08;101718.72;;;20.40;63.40
73455;BME280;61690;51.824;6.306;2023-06-22T05:32:34;101716.09;;;20.54;63.26
73455;BME280;61690;51.824;6.306;2023-06-22T05:34:59;101724.59;;;20.45;63.50
73455;BME280;61690;51.824;6.306;2023-06-22T05:37:28;101719.75;;;20.67;62.95
73455;BME280;61690;51.824;6.306;2023-06-22T05:39:54;101710.84;;;20.68;62.83
73455;BME280;61690;51.824;6.306;2023-06-22T05:42:21;101717.84;;;20.69;63.11
73455;BME280;61690;51.824;6.306;2023-06-22T05:44:47;101711.13;;;20.78;63.04
73455;BME280;61690;51.824;6.306;2023-06-22T05:47:13;101715.88;;;20.73;63.31
73455;BME280;61690;51.824;6.306;2023-06-22T05:49:39;101722.38;;;20.82;62.94
73455;BME280;61690;51.824;6.306;2023-06-22T05:52:05;101731.91;;;20.99;62.21
73455;BME280;61690;51.824;6.306;2023-06-22T05:54:37;101734.63;;;20.97;62.43
73455;BME280;61690;51.824;6.306;2023-06-22T05:57:04;101737.47;;;21.08;61.97
73455;BME280;61690;51.824;6.306;2023-06-22T05:59:29;101737.59;;;21.34;61.08
73455;BME280;61690;51.824;6.306;2023-06-22T06:01:54;101738.25;;;20.96;62.27
73455;BME280;61690;51.824;6.306;2023-06-22T06:04:19;101733.69;;;21.12;61.66
73455;BME280;61690;51.824;6.306;2023-06-22T06:06:45;101732.13;;;21.37;60.59
73455;BME280;61690;51.824;6.306;2023-06-22T06:09:13;101726.72;;;21.53;60.04
73455;BME280;61690;51.824;6.306;2023-06-22T06:11:39;101726.97;;;21.63;59.48
73455;BME280;61690;51.824;6.306;2023-06-22T06:14:04;101724.13;;;21.66;59.19
73455;BME280;61690;51.824;6.306;2023-06-22T06:16:29;101727.41;;;21.69;58.92
73455;BME280;61690;51.824;6.306;2023-06-22T06:18:55;101721.81;;;21.74;58.79
73455;BME280;61690;51.824;6.306;2023-06-22T06:21:22;101728.06;;;21.73;58.78
73455;BME280;61690;51.824;6.306;2023-06-22T06:23:54;101728.91;;;21.73;58.61
73455;BME280;61690;51.824;6.306;2023-06-22T06:26:19;101722.47;;;21.78;58.45
73455;BME280;61690;51.824;6.306;2023-06-22T06:28:57;101724.81;;;21.82;58.18
73455;BME280;61690;51.824;6.306;2023-06-22T06:31:22;101723.00;;;21.83;58.23
73455;BME280;61690;51.824;6.306;2023-06-22T06:33:48;101719.53;;;21.82;58.07
73455;BME280;61690;51.824;6.306;2023-06-22T06:36:16;101725.75;;;21.81;58.11
73455;BME280;61690;51.824;6.306;2023-06-22T06:38:42;101714.75;;;21.87;57.82
73455;BME280;61690;51.824;6.306;2023-06-22T06:41:07;101723.44;;;21.89;57.81
73455;BME280;61690;51.824;6.306;2023-06-22T06:43:32;101724.09;;;21.93;57.78
73455;BME280;61690;51.824;6.306;2023-06-22T06:45:58;101728.56;;;21.92;57.50
73455;BME280;61690;51.824;6.306;2023-06-22T06:48:23;101724.09;;;21.93;57.62
73455;BME280;61690;51.824;6.306;2023-06-22T06:50:51;101716.91;;;21.95;57.57
73455;BME280;61690;51.824;6.306;2023-06-22T06:53:18;101714.88;;;21.99;57.44
73455;BME280;61690;51.824;6.306;2023-06-22T06:55:43;101717.53;;;21.99;57.39
73455;BME280;61690;51.824;6.306;2023-06-22T06:58:10;101710.25;;;22.02;57.24
73455;BME280;61690;51.824;6.306;2023-06-22T07:00:38;101710.97;;;22.04;57.18
73455;BME280;61690;51.824;6.306;2023-06-22T07:03:04;101710.03;;;22.05;57.13
73455;BME280;61690;51.824;6.306;2023-06-22T07:05:34;101702.72;;;22.09;57.08
73455;BME280;61690;51.824;6.306;2023-06-22T07:08:00;101702.72;;;22.09;57.12
73455;BME280;61690;51.824;6.306;2023-06-22T07:10:26;101705.25;;;22.10;57.11
73455;BME280;61690;51.824;6.306;2023-06-22T07:12:51;101701.69;;;22.11;57.04
73455;BME280;61690;51.824;6.306;2023-06-22T07:15:18;101706.09;;;22.11;57.20
73455;BME280;61690;51.824;6.306;2023-06-22T07:17:50;101705.91;;;22.14;57.00
73455;BME280;61690;51.824;6.306;2023-06-22T07:20:15;101702.31;;;22.15;56.84
73455;BME280;61690;51.824;6.306;2023-06-22T07:22:43;101698.59;;;22.18;56.66
73455;BME280;61690;51.824;6.306;2023-06-22T07:25:10;101699.44;;;22.18;56.59
73455;BME280;61690;51.824;6.306;2023-06-22T07:27:37;101699.25;;;22.21;56.78
73455;BME280;61690;51.824;6.306;2023-06-22T07:30:04;101698.28;;;22.22;56.85
73455;BME280;61690;51.824;6.306;2023-06-22T07:32:39;101699.16;;;22.23;56.67
73455;BME280;61690;51.824;6.306;2023-06-22T07:35:05;101699.16;;;22.23;56.89
73455;BME280;61690;51.824;6.306;2023-06-22T07:37:31;101689.47;;;22.22;56.98
73455;BME280;61690;51.824;6.306;2023-06-22T07:39:59;101694.69;;;22.23;57.14
73455;BME280;61690;51.824;6.306;2023-06-22T07:42:25;101696.19;;;22.27;56.91
73455;BME280;61690;51.824;6.306;2023-06-22T07:44:54;101705.88;;;22.28;57.15
73455;BME280;61690;51.824;6.306;2023-06-22T07:47:20;101697.16;;;22.26;57.08
73455;BME280;61690;51.824;6.306;2023-06-22T07:49:50;101699.59;;;22.29;56.96
73455;BME280;61690;51.824;6.306;2023-06-22T07:52:15;101694.53;;;22.26;57.52
73455;BME280;61690;51.824;6.306;2023-06-22T07:54:40;101691.28;;;22.21;58.17
73455;BME280;61690;51.824;6.306;2023-06-22T07:57:07;101693.72;;;22.24;57.86
73455;BME280;61690;51.824;6.306;2023-06-22T07:59:34;101696.38;;;22.24;58.51
73455;BME280;61690;51.824;6.306;2023-06-22T08:01:59;101689.38;;;22.23;58.36
73455;BME280;61690;51.824;6.306;2023-06-22T08:04:26;101684.09;;;22.23;58.42
73455;BME280;61690;51.824;6.306;2023-06-22T08:06:52;101692.81;;;22.25;58.28
73455;BME280;61690;51.824;6.306;2023-06-22T08:09:17;101688.88;;;22.31;57.78
73455;BME280;61690;51.824;6.306;2023-06-22T08:11:43;101681.69;;;22.33;57.65
73455;BME280;61690;51.824;6.306;2023-06-22T08:14:14;101681.47;;;22.36;57.51
73455;BME280;61690;51.824;6.306;2023-06-22T08:16:41;101680.50;;;22.37;57.42
73455;BME280;61690;51.824;6.306;2023-06-22T08:19:06;101674.13;;;22.40;57.23
73455;BME280;61690;51.824;6.306;2023-06-22T08:21:32;101667.91;;;22.41;57.24
73455;BME280;61690;51.824;6.306;2023-06-22T08:23:58;101660.69;;;22.43;56.86
73455;BME280;61690;51.824;6.306;2023-06-22T08:26:23;101655.28;;;22.44;57.05
73455;BME280;61690;51.824;6.306;2023-06-22T08:28:49;101637.34;;;22.48;56.99
73455;BME280;61690;51.824;6.306;2023-06-22T08:31:14;101638.31;;;22.47;56.92
73455;BME280;61690;51.824;6.306;2023-06-22T08:33:41;101640.22;;;22.45;57.27
73455;BME280;61690;51.824;6.306;2023-06-22T08:36:08;101651.88;;;22.42;57.52
73455;BME280;61690;51.824;6.306;2023-06-22T08:38:36;101645.50;;;22.45;57.28
73455;BME280;61690;51.824;6.306;2023-06-22T08:41:01;101635.75;;;22.45;57.95
73455;BME280;61690;51.824;6.306;2023-06-22T08:43:27;101632.16;;;22.34;58.96
73455;BME280;61690;51.824;6.306;2023-06-22T08:45:54;101622.19;;;22.37;59.06
73455;BME280;61690;51.824;6.306;2023-06-22T08:48:19;101619.53;;;22.37;59.46
73455;BME280;61690;51.824;6.306;2023-06-22T08:50:45;101612.84;;;22.44;58.67
73455;BME280;61690;51.824;6.306;2023-06-22T08:53:10;101617.63;;;22.52;58.38
73455;BME280;61690;51.824;6.306;2023-06-22T08:55:37;101611.34;;;22.53;58.05
73455;BME280;61690;51.824;6.306;2023-06-22T08:58:02;101609.66;;;22.52;58.01
73455;BME280;61690;51.824;6.306;2023-06-22T09:00:29;101596.50;;;22.50;58.14
73455;BME280;61690;51.824;6.306;2023-06-22T09:02:58;101587.63;;;22.51;58.13
73455;BME280;61690;51.824;6.306;2023-06-22T09:05:24;101598.97;;;22.54;57.89
73455;BME280;61690;51.824;6.306;2023-06-22T09:07:51;101599.69;;;22.56;57.91
73455;BME280;61690;51.824;6.306;2023-06-22T09:10:17;101596.94;;;22.57;57.84
73455;BME280;61690;51.824;6.306;2023-06-22T09:12:45;101599.59;;;22.57;58.06
73455;BME280;61690;51.824;6.306;2023-06-22T09:15:10;101595.13;;;22.58;57.59
73455;BME280;61690;51.824;6.306;2023-06-22T09:17:35;101595.97;;;22.58;57.84
73455;BME280;61690;51.824;6.306;2023-06-22T09:20:02;101598.50;;;22.60;57.70
73455;BME280;61690;51.824;6.306;2023-06-22T09:22:31;101587.06;;;22.59;57.77
73455;BME280;61690;51.824;6.306;2023-06-22T09:24:58;101583.44;;;22.60;57.61
73455;BME280;61690;51.824;6.306;2023-06-22T09:27:26;101582.50;;;22.61;57.41
73455;BME280;61690;51.824;6.306;2023-06-22T09:29:51;101573.81;;;22.59;57.36
73455;BME280;61690;51.824;6.306;2023-06-22T09:32:16;101569.25;;;22.61;57.49
73455;BME280;61690;51.824;6.306;2023-06-22T09:34:42;101576.22;;;22.62;57.39
73455;BME280;61690;51.824;6.306;2023-06-22T09:37:07;101568.28;;;22.62;57.06
73455;BME280;61690;51.824;6.306;2023-06-22T09:39:36;101569.97;;;22.63;57.09
73455;BME280;61690;51.824;6.306;2023-06-22T09:42:02;101560.22;;;22.64;57.14
73455;BME280;61690;51.824;6.306;2023-06-22T09:44:27;101563.69;;;22.64;57.32
73455;BME280;61690;51.824;6.306;2023-06-22T09:46:52;101564.44;;;22.66;57.20
73455;BME280;61690;51.824;6.306;2023-06-22T09:49:18;101570.72;;;22.65;57.09
73455;BME280;61690;51.824;6.306;2023-06-22T09:51:44;101568.16;;;22.64;57.21
73455;BME280;61690;51.824;6.306;2023-06-22T09:54:14;101568.91;;;22.66;56.98
73455;BME280;61690;51.824;6.306;2023-06-22T09:56:41;101569.88;;;22.65;57.03
73455;BME280;61690;51.824;6.306;2023-06-22T09:59:06;101568.06;;;22.65;57.39
73455;BME280;61690;51.824;6.306;2023-06-22T10:01:32;101566.97;;;22.68;57.03
73455;BME280;61690;51.824;6.306;2023-06-22T10:03:57;101566.25;;;22.66;57.08
73455;BME280;61690;51.824;6.306;2023-06-22T10:06:23;101569.72;;;22.66;57.01
73455;BME280;61690;51.824;6.306;2023-06-22T10:09:02;101567.09;;;22.66;57.04
73455;BME280;61690;51.824;6.306;2023-06-22T10:11:27;101561.91;;;22.65;56.99
73455;BME280;61690;51.824;6.306;2023-06-22T10:13:55;101559.38;;;22.63;56.97
73455;BME280;61690;51.824;6.306;2023-06-22T10:16:21;101561.78;;;22.66;56.94
73455;BME280;61690;51.824;6.306;2023-06-22T10:18:46;101562.75;;;22.65;57.02
73455;BME280;61690;51.824;6.306;2023-06-22T10:21:12;101562.75;;;22.65;56.91
73455;BME280;61690;51.824;6.306;2023-06-22T10:23:38;101558.19;;;22.67;57.00
73455;BME280;61690;51.824;6.306;2023-06-22T10:26:03;101562.50;;;22.68;56.85
73455;BME280;61690;51.824;6.306;2023-06-22T10:28:28;101566.88;;;22.69;56.74
73455;BME280;61690;51.824;6.306;2023-06-22T10:30:53;101564.22;;;22.69;56.64
73455;BME280;61690;51.824;6.306;2023-06-22T10:33:19;101561.56;;;22.69;56.88
73455;BME280;61690;51.824;6.306;2023-06-22T10:35:47;101557.22;;;22.68;56.84
73455;BME280;61690;51.824;6.306;2023-06-22T10:38:13;101546.41;;;22.71;57.08
73455;BME280;61690;51.824;6.306;2023-06-22T10:40:38;101545.66;;;22.69;57.24
73455;BME280;61690;51.824;6.306;2023-06-22T10:43:05;101544.72;;;22.70;57.15
73455;BME280;61690;51.824;6.306;2023-06-22T10:45:32;101541.81;;;22.74;57.19
73455;BME280;61690;51.824;6.306;2023-06-22T10:47:58;101536.50;;;22.74;57.48
73455;BME280;61690;51.824;6.306;2023-06-22T10:50:25;101539.91;;;22.76;57.55
73455;BME280;61690;51.824;6.306;2023-06-22T10:52:50;101543.53;;;22.75;57.48
73455;BME280;61690;51.824;6.306;2023-06-22T10:55:18;101540.88;;;22.75;57.76
73455;BME280;61690;51.824;6.306;2023-06-22T10:57:44;101539.06;;;22.75;57.46
73455;BME280;61690;51.824;6.306;2023-06-22T11:00:13;101535.44;;;22.76;57.79
73455;BME280;61690;51.824;6.306;2023-06-22T11:02:40;101532.91;;;22.75;57.87
73455;BME280;61690;51.824;6.306;2023-06-22T11:05:06;101533.66;;;22.77;58.07
73455;BME280;61690;51.824;6.306;2023-06-22T11:07:31;101532.47;;;22.81;57.87
73455;BME280;61690;51.824;6.306;2023-06-22T11:09:58;101537.03;;;22.79;57.83
73455;BME280;61690;51.824;6.306;2023-06-22T11:12:23;101547.41;;;22.82;57.83
73455;BME280;61690;51.824;6.306;2023-06-22T11:14:48;101537.03;;;22.79;57.95
73455;BME280;61690;51.824;6.306;2023-06-22T11:17:18;101537.88;;;22.79;58.05
73455;BME280;61690;51.824;6.306;2023-06-22T11:19:44;101535.31;;;22.78;58.07
73455;BME280;61690;51.824;6.306;2023-06-22T11:22:10;101535.31;;;22.78;57.97
73455;BME280;61690;51.824;6.306;2023-06-22T11:24:36;101540.53;;;22.79;58.11
73455;BME280;61690;51.824;6.306;2023-06-22T11:27:01;101538.72;;;22.80;57.91
73455;BME280;61690;51.824;6.306;2023-06-22T11:29:26;101536.06;;;22.80;57.75
73455;BME280;61690;51.824;6.306;2023-06-22T11:31:54;101532.47;;;22.81;57.96
73455;BME280;61690;51.824;6.306;2023-06-22T11:34:21;101528.09;;;22.80;57.80
73455;BME280;61690;51.824;6.306;2023-06-22T11:36:46;101521.13;;;22.79;58.08
73455;BME280;61690;51.824;6.306;2023-06-22T11:39:15;101527.38;;;22.78;58.16
73455;BME280;61690;51.824;6.306;2023-06-22T11:41:41;101528.97;;;22.80;57.86
73455;BME280;61690;51.824;6.306;2023-06-22T11:44:08;101516.66;;;22.79;58.25
73455;BME280;61690;51.824;6.306;2023-06-22T11:46:35;101512.19;;;22.80;58.17
73455;BME280;61690;51.824;6.306;2023-06-22T11:49:01;101506.78;;;22.81;58.26
73455;BME280;61690;51.824;6.306;2023-06-22T11:51:28;101504.97;;;22.82;58.14
73455;BME280;61690;51.824;6.306;2023-06-22T11:53:56;101501.38;;;22.83;57.97
73455;BME280;61690;51.824;6.306;2023-06-22T11:56:21;101497.00;;;22.82;58.20
73455;BME280;61690;51.824;6.306;2023-06-22T11:58:47;101495.22;;;22.82;58.43
73455;BME280;61690;51.824;6.306;2023-06-22T12:01:14;101503.03;;;22.84;58.70
73455;BME280;61690;51.824;6.306;2023-06-22T12:03:41;101526.69;;;22.87;57.99
73455;BME280;61690;51.824;6.306;2023-06-22T12:06:06;101542.63;;;22.87;58.18
73455;BME280;61690;51.824;6.306;2023-06-22T12:08:34;101557.59;;;22.88;57.89
73455;BME280;61690;51.824;6.306;2023-06-22T12:10:59;101552.38;;;22.86;58.05
73455;BME280;61690;51.824;6.306;2023-06-22T12:13:24;101545.16;;;22.88;58.04
73455;BME280;61690;51.824;6.306;2023-06-22T12:15:51;101532.84;;;22.87;58.11
73455;BME280;61690;51.824;6.306;2023-06-22T12:18:18;101531.06;;;22.88;57.96
73455;BME280;61690;51.824;6.306;2023-06-22T12:20:45;101523.84;;;22.90;58.01
73455;BME280;61690;51.824;6.306;2023-06-22T12:23:11;101519.47;;;22.89;57.85
73455;BME280;61690;51.824;6.306;2023-06-22T12:25:36;101515.16;;;22.88;58.32
73455;BME280;61690;51.824;6.306;2023-06-22T12:28:02;101525.75;;;22.88;58.49
73455;BME280;61690;51.824;6.306;2023-06-22T12:30:29;101532.75;;;22.89;58.29
73455;BME280;61690;51.824;6.306;2023-06-22T12:32:55;101543.34;;;22.89;58.89
73455;BME280;61690;51.824;6.306;2023-06-22T12:35:22;101541.66;;;22.88;59.08
73455;BME280;61690;51.824;6.306;2023-06-22T12:37:47;101522.97;;;22.89;59.29
73455;BME280;61690;51.824;6.306;2023-06-22T12:40:13;101513.22;;;22.90;59.63
73455;BME280;61690;51.824;6.306;2023-06-22T12:42:39;101502.72;;;22.88;60.10
73455;BME280;61690;51.824;6.306;2023-06-22T12:45:05;101483.16;;;22.89;60.02
73455;BME280;61690;51.824;6.306;2023-06-22T12:47:30;101465.38;;;22.92;59.95
73455;BME280;61690;51.824;6.306;2023-06-22T12:49:56;101474.16;;;22.92;59.91
73455;BME280;61690;51.824;6.306;2023-06-22T12:52:21;101480.31;;;22.93;59.98
73455;BME280;61690;51.824;6.306;2023-06-22T12:54:46;101469.22;;;22.99;59.88
73455;BME280;61690;51.824;6.306;2023-06-22T12:57:12;101470.81;;;23.01;59.95
73455;BME280;61690;51.824;6.306;2023-06-22T12:59:37;101460.31;;;23.00;60.72